Time;durP1;ratioP1;P1;durP2;ratioP2;P2;SDS_P1;SDS_P2;PMS_P1;PMS_P2;Temp;Humidity;BMP_temperature;BMP_pressure;BME280_temperature;BME280_humidity;BME280_pressure;Samples;Min_cycle;Max_cycle;Signal;HPM_P1;HPM_P2
2022/09/16 00:01:31;;;;;;;12.25;4.20;;;17.00;99.90;;;17.49;64.20;100962.19;5116412;28;20043;-76
2022/09/16 00:03:59;;;;;;;12.63;3.80;;;17.10;99.90;;;17.31;64.78;100959.13;5116349;28;20120;-75
2022/09/16 00:06:29;;;;;;;17.35;4.07;;;17.00;99.90;;;17.11;65.52;100965.97;5116601;28;20051;-76
2022/09/16 00:09:00;;;;;;;8.75;3.53;;;16.90;99.90;;;17.05;63.64;100957.28;5116222;28;20050;-76
2022/09/16 00:11:33;;;;;;;6.85;3.15;;;16.90;99.90;;;16.55;63.14;100856.34;5114831;28;20134;-75
2022/09/16 00:14:01;;;;;;;6.57;3.28;;;16.80;99.90;;;16.81;63.11;100958.84;5116496;28;20040;-76
2022/09/16 00:16:31;;;;;;;9.48;3.30;;;16.60;99.90;;;16.87;62.84;100956.00;5116173;28;20043;-75
2022/09/16 00:19:02;;;;;;;10.13;3.10;;;16.60;99.90;;;16.79;62.96;100959.81;5116469;28;20043;-74
2022/09/16 00:21:31;;;;;;;8.35;3.50;;;16.50;99.90;;;16.65;64.00;100957.53;5116971;28;20048;-75
2022/09/16 00:23:59;;;;;;;8.35;3.35;;;16.40;99.90;;;16.75;64.70;100966.16;5116136;28;20073;-75
2022/09/16 00:26:28;;;;;;;9.60;3.45;;;16.40;99.90;;;16.64;66.39;100952.22;5116412;27;20039;-75
2022/09/16 00:28:56;;;;;;;11.57;3.53;;;16.40;99.90;;;16.73;67.00;100963.53;5115196;28;20078;-75
2022/09/16 00:31:25;;;;;;;8.10;3.50;;;16.40;99.90;;;16.65;67.62;100970.00;5116250;28;20069;-75
2022/09/16 00:33:55;;;;;;;11.25;3.70;;;16.30;99.90;;;16.76;67.89;100968.78;5115966;28;20065;-76
2022/09/16 00:36:23;;;;;;;6.80;3.22;;;16.40;99.90;;;16.59;68.19;100965.69;5116575;28;20043;-75
2022/09/16 00:38:53;;;;;;;9.45;3.72;;;16.30;99.90;;;16.69;68.89;100964.53;5115001;28;20043;-75
2022/09/16 00:41:25;;;;;;;9.10;3.35;;;16.30;99.90;;;16.52;70.56;100963.25;5116121;28;20043;-76
2022/09/16 00:43:57;;;;;;;11.73;3.92;;;16.20;99.90;;;16.51;70.50;100970.38;5116138;28;20060;-75
2022/09/16 00:46:36;;;;;;;9.30;3.53;;;16.20;99.90;;;16.63;70.32;100969.16;5116336;28;20043;-75
2022/09/16 00:49:12;;;;;;;10.82;3.40;;;16.30;99.90;;;16.32;69.92;100945.03;5115890;28;20503;-75
2022/09/16 00:51:42;;;;;;;7.97;3.42;;;16.20;99.90;;;16.52;68.96;100966.78;5116273;28;20070;-76
2022/09/16 00:54:11;;;;;;;7.95;3.50;;;16.20;99.90;;;16.58;68.08;100968.41;5114836;28;20036;-76
2022/09/16 00:56:43;;;;;;;8.63;2.95;;;16.20;99.90;;;16.61;68.12;100971.88;5115843;28;20039;-76
2022/09/16 00:59:17;;;;;;;8.52;3.58;;;16.20;99.90;;;16.55;68.86;100974.72;5115767;28;20047;-76
2022/09/16 01:01:46;;;;;;;9.02;3.30;;;16.20;99.90;;;16.61;69.10;100974.53;5114445;28;20543;-76
2022/09/16 01:04:21;;;;;;;9.00;3.78;;;16.30;99.90;;;16.22;69.68;100907.03;5115395;27;20044;-76
2022/09/16 01:06:50;;;;;;;7.32;3.00;;;16.20;99.90;;;16.62;70.52;100964.75;5115648;28;20126;-76
2022/09/16 01:09:22;;;;;;;8.00;3.05;;;16.20;99.90;;;16.52;70.73;100964.13;5115509;28;20059;-75
2022/09/16 01:11:50;;;;;;;21.27;3.42;;;16.20;99.90;;;16.64;70.56;100966.47;5115867;28;20048;-75
2022/09/16 01:17:19;;;;;;;6.25;3.10;;;16.40;99.90;;;16.37;72.30;100958.28;5115437;28;20477;-76
2022/09/16 01:20:32;;;;;;;7.00;3.20;;;16.10;99.90;;;16.43;72.45;100956.34;5115379;28;20484;-75
2022/09/16 01:23:41;;;;;;;8.82;3.30;;;16.10;99.90;;;16.74;72.20;100986.63;5101546;28;20043;-75
2022/09/16 01:26:33;;;;;;;15.63;4.05;;;16.30;99.90;;;16.91;73.03;100983.50;5114936;28;20050;-75
2022/09/16 01:29:41;;;;;;;11.02;3.47;;;16.50;99.90;;;17.05;73.58;100984.84;5114856;28;20134;-76
2022/09/16 01:32:19;;;;;;;11.93;3.40;;;16.70;99.90;;;17.10;73.92;100980.28;5115013;28;20050;-75
2022/09/16 01:34:54;;;;;;;11.13;4.00;;;16.80;99.90;;;17.20;74.04;100988.88;5115298;28;20130;-76
2022/09/16 01:37:36;;;;;;;8.05;3.50;;;16.80;99.90;;;17.21;74.05;100984.44;5114942;28;20485;-76
2022/09/16 01:40:10;;;;;;;10.25;3.88;;;16.80;99.90;;;17.20;73.42;100969.28;5114305;28;20039;-75
2022/09/16 01:42:47;;;;;;;10.93;3.72;;;16.90;99.90;;;17.38;73.09;100990.13;5114275;28;20463;-76
2022/09/16 01:45:21;;;;;;;14.52;4.15;;;17.00;99.90;;;17.31;73.23;100985.88;5114524;28;20473;-75
2022/09/16 01:47:58;;;;;;;11.55;3.30;;;17.00;99.90;;;17.27;72.81;100986.91;5114390;28;20047;-74
2022/09/16 01:50:31;;;;;;;9.20;3.33;;;17.00;99.90;;;17.24;72.32;100989.66;5114372;28;20058;-74
2022/09/16 01:53:10;;;;;;;8.95;3.58;;;16.90;99.90;;;17.20;71.95;100990.69;5114259;28;20516;-75
2022/09/16 01:55:43;;;;;;;9.30;4.10;;;16.80;99.90;;;17.16;71.84;100979.22;5114371;28;20460;-75
2022/09/16 01:58:19;;;;;;;14.05;3.20;;;16.80;99.90;;;16.94;71.09;100984.28;5114095;28;20050;-76
2022/09/16 02:00:51;;;;;;;6.32;2.95;;;16.60;99.90;;;17.11;70.11;100987.34;5114049;28;20044;-75
2022/09/16 02:03:25;;;;;;;9.43;3.88;;;16.70;99.90;;;17.14;70.27;100987.28;5114447;28;20036;-75
2022/09/16 02:05:58;;;;;;;10.43;3.95;;;16.80;99.90;;;17.13;69.97;100979.28;5112876;28;20043;-75
2022/09/16 02:08:34;;;;;;;8.98;3.80;;;16.80;99.90;;;17.05;70.07;100976.84;5114264;28;20054;-76
2022/09/16 02:11:07;;;;;;;9.70;3.45;;;16.70;99.90;;;16.97;70.91;100984.22;5114011;28;20058;-75
2022/09/16 02:13:39;;;;;;;10.73;3.42;;;16.60;99.90;;;16.70;70.88;100931.56;5114062;28;20043;-75
2022/09/16 02:16:12;;;;;;;8.55;3.00;;;16.60;99.90;;;17.10;70.70;100976.72;5113741;28;20065;-74
2022/09/16 02:18:47;;;;;;;8.27;3.05;;;16.70;99.90;;;17.13;70.16;100979.28;5113798;28;20126;-75
2022/09/16 02:21:17;;;;;;;9.73;3.13;;;16.70;99.90;;;17.23;70.10;100990.59;5114263;28;20036;-76
2022/09/16 02:23:51;;;;;;;8.07;3.10;;;16.80;99.90;;;16.90;70.95;100987.97;5113646;27;20057;-76
2022/09/16 02:26:24;;;;;;;9.40;3.00;;;16.60;99.90;;;16.37;72.60;101001.00;5112580;28;20057;-76
2022/09/16 02:28:54;;;;;;;9.65;3.25;;;16.10;99.90;;;16.64;72.59;100992.28;5113559;28;20465;-76
2022/09/16 02:31:30;;;;;;;7.00;2.90;;;16.20;99.90;;;16.71;72.20;100997.41;5113873;28;20125;-76
2022/09/16 02:34:03;;;;;;;13.23;3.55;;;16.30;99.90;;;16.73;72.66;100989.34;5113580;28;20058;-76
2022/09/16 02:36:32;;;;;;;8.30;3.42;;;16.40;99.90;;;16.69;73.31;100990.34;5113560;28;20043;-77
2022/09/16 02:39:07;;;;;;;8.63;3.10;;;16.30;99.90;;;16.73;73.47;100990.25;5113615;28;20035;-76
2022/09/16 02:41:36;;;;;;;8.13;3.58;;;16.40;99.90;;;16.66;73.93;100986.00;5113819;28;20048;-76
2022/09/16 02:44:05;;;;;;;9.13;3.38;;;16.30;99.90;;;16.57;74.11;100983.56;5113789;28;20032;-76
2022/09/16 02:46:42;;;;;;;8.48;3.40;;;16.20;99.90;;;16.56;74.48;100978.25;5113609;28;20043;-76
2022/09/16 02:49:18;;;;;;;5.55;2.97;;;16.20;99.90;;;16.54;74.23;100978.31;5113667;28;20491;-74
2022/09/16 02:51:56;;;;;;;11.23;3.55;;;16.20;99.90;;;16.55;73.79;100977.38;5113236;28;20052;-76
2022/09/16 02:54:33;;;;;;;7.13;3.20;;;16.20;99.90;;;16.57;74.05;100982.72;5113773;28;20051;-76
2022/09/16 02:57:01;;;;;;;10.70;3.83;;;16.20;99.90;;;16.66;74.34;100971.75;5113207;28;20040;-76
2022/09/16 02:59:29;;;;;;;8.52;3.15;;;16.30;99.90;;;16.62;73.63;100967.41;5113100;28;20039;-76
2022/09/16 03:02:00;;;;;;;9.75;3.28;;;16.20;99.90;;;16.65;73.99;100970.88;5112094;28;20053;-76
2022/09/16 03:04:30;;;;;;;6.40;3.28;;;16.20;99.90;;;16.67;74.21;100971.72;5113389;28;20450;-76
2022/09/16 03:06:58;;;;;;;7.80;2.95;;;16.20;99.90;;;16.72;74.89;100969.81;5113294;28;20070;-76
2022/09/16 03:09:28;;;;;;;8.13;3.28;;;16.30;99.90;;;16.77;74.74;100970.53;5113170;28;20451;-75
2022/09/16 03:12:21;;;;;;;9.98;3.13;;;16.40;99.90;;;16.77;74.18;100980.34;5113086;28;20035;-75
2022/09/16 03:15:22;;;;;;;9.15;4.07;;;16.30;99.90;;;16.79;73.59;100960.69;5113227;28;20046;-76
2022/09/16 03:18:18;;;;;;;8.77;3.83;;;16.40;99.90;;;16.88;72.64;100979.13;5117180;28;20040;-76
2022/09/16 03:21:00;;;;;;;12.73;3.45;;;16.50;99.90;;;16.85;72.82;100989.91;5117368;28;20138;-76
2022/09/16 03:23:44;;;;;;;8.27;3.55;;;16.40;99.90;;;16.60;74.05;100966.59;5117635;28;20130;-77
2022/09/16 03:26:25;;;;;;;9.55;3.60;;;16.30;99.90;;;16.32;75.07;100960.22;5117578;28;20047;-77
2022/09/16 03:29:04;;;;;;;6.63;3.20;;;16.00;99.90;;;16.12;76.71;100961.56;5117687;28;20047;-76
2022/09/16 03:31:38;;;;;;;13.02;3.90;;;15.80;99.90;;;15.94;78.04;100963.84;5117247;28;20118;-77
2022/09/16 03:34:15;;;;;;;10.75;3.92;;;15.60;99.90;;;16.10;78.53;100954.53;5117432;28;20067;-77
2022/09/16 03:36:49;;;;;;;8.48;3.50;;;15.60;99.90;;;16.00;79.07;100951.25;5117130;28;20151;-75
2022/09/16 03:39:21;;;;;;;11.73;3.90;;;15.60;99.90;;;15.92;79.59;100955.00;5117034;28;20044;-76
2022/09/16 03:41:51;;;;;;;9.80;3.80;;;15.50;99.90;;;16.11;79.49;100958.94;5117567;28;20384;-73
2022/09/16 03:44:19;;;;;;;11.70;4.20;;;15.60;99.90;;;16.00;80.26;100958.34;5117053;28;20048;-75
2022/09/16 03:46:48;;;;;;;11.32;3.65;;;15.60;99.90;;;16.03;79.56;100959.16;5117411;28;20040;-76
2022/09/16 03:49:16;;;;;;;11.75;4.00;;;15.70;99.90;;;15.78;79.00;100970.47;5117222;28;20050;-76
2022/09/16 03:51:46;;;;;;;9.00;3.20;;;15.50;99.90;;;15.77;79.30;100969.59;5116943;28;20116;-76
2022/09/16 03:54:14;;;;;;;13.38;3.97;;;15.40;99.90;;;15.68;79.72;100966.28;5116649;28;20471;-76
2022/09/16 03:56:42;;;;;;;13.13;3.97;;;15.40;99.90;;;15.41;81.83;100961.56;5116671;28;20050;-76
2022/09/16 03:59:10;;;;;;;9.13;3.95;;;15.00;99.90;;;15.72;81.18;100965.25;5115521;28;20055;-75
2022/09/16 04:01:39;;;;;;;10.35;4.03;;;15.20;99.90;;;15.85;80.52;100967.59;5116598;28;20065;-76
2022/09/16 04:04:07;;;;;;;9.93;3.30;;;15.40;99.90;;;16.03;79.93;100960.94;5116233;28;20463;-75
2022/09/16 04:06:36;;;;;;;7.68;3.40;;;15.60;99.90;;;16.14;79.11;100961.56;5116839;28;20040;-76
2022/09/16 04:09:07;;;;;;;10.13;3.42;;;15.70;99.90;;;16.27;78.86;100963.00;5116042;28;20058;-75
2022/09/16 04:11:35;;;;;;;12.48;3.33;;;15.90;99.90;;;16.37;78.05;100959.16;5116190;28;20123;-76
2022/09/16 04:14:04;;;;;;;9.48;3.10;;;16.00;99.90;;;16.36;77.55;100957.41;5116276;28;20077;-75
2022/09/16 04:16:33;;;;;;;9.48;3.70;;;16.00;99.90;;;16.42;77.36;100951.91;5116259;28;20036;-76
2022/09/16 04:19:01;;;;;;;7.85;3.38;;;16.00;99.90;;;16.54;76.81;100953.38;5116018;28;20040;-76
2022/09/16 04:21:30;;;;;;;7.43;2.90;;;16.10;99.90;;;16.63;76.10;100948.66;5116092;27;20075;-76
2022/09/16 04:23:59;;;;;;;7.28;3.05;;;16.20;99.90;;;16.64;75.70;100945.09;5116381;28;20113;-76
2022/09/16 04:26:28;;;;;;;14.07;3.80;;;16.30;99.90;;;16.66;75.32;100945.06;5116316;28;20047;-76
2022/09/16 04:28:57;;;;;;;7.83;3.50;;;16.30;99.90;;;16.71;74.92;100946.66;5114730;28;20042;-76
2022/09/16 04:31:25;;;;;;;12.27;3.53;;;16.30;99.90;;;16.67;74.33;100942.31;5115888;28;20316;-76
2022/09/16 04:33:53;;;;;;;9.00;3.63;;;16.30;99.90;;;16.65;74.79;100953.97;5114911;28;20449;-76
2022/09/16 04:36:21;;;;;;;7.78;3.80;;;16.30;99.90;;;16.70;75.35;100957.41;5116460;28;20043;-76
2022/09/16 04:38:50;;;;;;;7.32;3.22;;;16.30;99.90;;;16.78;74.93;100964.25;5116020;28;20088;-76
2022/09/16 04:41:20;;;;;;;10.38;3.83;;;16.40;99.90;;;16.60;74.41;100956.78;5116298;28;20047;-76
2022/09/16 04:43:54;;;;;;;9.45;3.45;;;16.30;99.90;;;16.49;73.45;100956.19;5116270;28;20051;-76
2022/09/16 04:46:24;;;;;;;11.50;3.83;;;16.10;99.90;;;16.46;73.11;100953.56;5115772;28;20073;-76
2022/09/16 04:48:54;;;;;;;11.90;3.92;;;16.20;99.90;;;16.52;73.27;100952.56;5116195;28;20104;-76
2022/09/16 04:51:27;;;;;;;13.18;3.78;;;16.20;99.90;;;16.31;72.74;100947.75;5115971;28;20051;-75
2022/09/16 04:53:56;;;;;;;9.15;4.07;;;16.00;99.90;;;16.43;72.62;100947.44;5116022;28;20428;-76
2022/09/16 04:56:27;;;;;;;12.93;4.03;;;16.10;99.90;;;16.40;72.79;100953.72;5114792;28;20626;-76
2022/09/16 04:59:01;;;;;;;10.05;3.70;;;16.00;99.90;;;16.36;72.54;100949.38;5115835;28;20140;-76
2022/09/16 05:01:32;;;;;;;6.68;3.45;;;16.00;99.90;;;16.12;73.02;100937.56;5116044;28;20053;-76
2022/09/16 05:04:03;;;;;;;14.75;3.67;;;15.90;99.90;;;16.10;72.11;100946.53;5115715;28;20039;-75
2022/09/16 05:06:36;;;;;;;9.02;4.15;;;15.80;99.90;;;16.26;71.28;100946.09;5115586;28;20036;-75
2022/09/16 05:09:04;;;;;;;10.88;3.97;;;15.80;99.90;;;16.42;70.33;100953.69;5115235;28;20050;-75
2022/09/16 05:11:35;;;;;;;12.38;4.03;;;16.10;99.90;;;16.42;70.09;100953.69;5115394;28;20039;-75
2022/09/16 05:14:08;;;;;;;10.50;3.97;;;16.00;99.90;;;16.20;70.76;100951.59;5115246;28;20044;-76
2022/09/16 05:16:37;;;;;;;11.27;3.90;;;16.00;99.90;;;16.02;71.23;100951.19;5115802;28;20039;-75
2022/09/16 05:19:05;;;;;;;13.57;4.15;;;15.80;99.90;;;16.27;71.06;100960.31;5115650;28;20039;-75
2022/09/16 05:21:35;;;;;;;12.90;4.55;;;15.90;99.90;;;16.28;70.73;100959.38;5115561;28;20089;-75
2022/09/16 05:24:07;;;;;;;13.38;4.18;;;16.00;99.90;;;16.34;70.52;100939.69;5115453;28;20036;-76
2022/09/16 05:26:38;;;;;;;11.32;4.28;;;16.10;99.90;;;16.20;70.61;100951.59;5115208;28;20126;-75
2022/09/16 05:29:14;;;;;;;13.88;3.70;;;15.90;99.90;;;16.17;70.58;100961.47;5114881;28;20037;-74
2022/09/16 05:31:46;;;;;;;8.90;3.97;;;15.90;99.90;;;16.24;70.10;100958.59;5115000;28;20040;-75
2022/09/16 05:34:17;;;;;;;9.80;3.88;;;16.00;99.90;;;16.36;69.97;100961.84;5114707;28;20043;-76
2022/09/16 05:36:48;;;;;;;17.98;3.72;;;16.00;99.90;;;16.00;70.22;100969.03;5114784;28;20405;-76
2022/09/16 05:39:17;;;;;;;12.18;3.78;;;15.80;99.90;;;16.08;69.90;100978.63;5114910;28;20044;-76
2022/09/16 05:41:55;;;;;;;13.93;3.25;;;15.80;99.90;;;15.94;69.10;100947.84;5114931;28;20043;-76
2022/09/16 05:44:27;;;;;;;13.10;3.53;;;15.80;99.90;;;15.78;68.83;100962.44;5114647;28;20047;-76
2022/09/16 05:46:55;;;;;;;9.02;3.75;;;15.60;99.90;;;16.02;67.67;100962.75;5114647;28;20036;-76
2022/09/16 05:49:26;;;;;;;9.82;3.97;;;15.70;99.90;;;16.17;67.00;100966.81;5114334;28;20071;-75
2022/09/16 05:51:55;;;;;;;7.25;3.35;;;15.90;99.90;;;16.09;67.86;100971.47;5114618;28;20072;-75
2022/09/16 05:54:24;;;;;;;8.38;3.28;;;15.80;99.90;;;16.08;66.66;100967.06;5114512;27;20043;-75
2022/09/16 05:56:53;;;;;;;7.43;3.20;;;15.80;99.90;;;16.17;67.70;100961.47;5114050;28;20554;-75
2022/09/16 05:59:22;;;;;;;6.00;3.47;;;15.80;99.90;;;16.24;67.34;100968.38;5114025;28;20059;-75
2022/09/16 06:01:53;;;;;;;7.90;3.30;;;15.90;99.90;;;16.07;68.54;100975.97;5113004;28;20050;-75
2022/09/16 06:04:21;;;;;;;11.73;3.65;;;15.80;99.90;;;16.18;68.47;100990.78;5113060;28;20062;-75
2022/09/16 06:06:50;;;;;;;12.63;4.00;;;15.80;99.90;;;16.17;69.52;100973.03;5114649;28;20038;-74
2022/09/16 06:09:21;;;;;;;15.25;4.07;;;15.90;99.90;;;16.28;69.35;100986.97;5114028;28;20069;-76
2022/09/16 06:11:51;;;;;;;17.08;4.60;;;16.00;99.90;;;16.26;70.09;100977.25;5114299;28;20047;-76
2022/09/16 06:14:25;;;;;;;13.85;4.07;;;15.90;99.90;;;16.25;69.54;100981.72;5114893;28;20385;-75
2022/09/16 06:16:55;;;;;;;12.85;4.50;;;16.00;99.90;;;16.41;69.47;100987.53;5113967;28;20048;-76
2022/09/16 06:19:23;;;;;;;14.13;3.93;;;16.10;99.90;;;16.57;69.49;100990.72;5114256;28;20048;-76
2022/09/16 06:21:51;;;;;;;11.27;3.55;;;16.20;99.90;;;16.80;69.00;100981.13;5113909;28;20432;-75
2022/09/16 06:24:21;;;;;;;17.20;4.35;;;16.50;99.90;;;17.12;68.40;100994.47;5113837;28;20078;-76
2022/09/16 06:26:49;;;;;;;11.27;4.15;;;16.80;99.90;;;17.50;67.16;101003.19;5113819;28;20051;-75
2022/09/16 06:29:17;;;;;;;11.93;3.75;;;17.10;99.90;;;17.91;66.50;100995.59;5113471;28;20338;-75
2022/09/16 06:31:46;;;;;;;11.82;3.88;;;17.60;99.90;;;18.18;64.90;101001.84;5113713;28;20043;-76
2022/09/16 06:34:18;;;;;;;12.98;3.70;;;17.90;99.90;;;18.37;63.78;101008.31;5114027;28;20043;-75
2022/09/16 06:36:46;;;;;;;13.38;3.80;;;18.10;99.90;;;18.77;63.22;101003.38;5113602;28;20044;-76
2022/09/16 06:39:17;;;;;;;11.18;3.88;;;18.40;99.90;;;19.08;60.87;101010.28;5113409;28;20077;-76
2022/09/16 06:41:45;;;;;;;8.85;3.40;;;18.70;99.90;;;19.35;60.66;101007.50;5113657;28;20061;-76
2022/09/16 06:44:13;;;;;;;8.75;3.50;;;19.00;99.90;;;19.59;59.70;101005.66;5113390;28;20393;-75
2022/09/16 06:46:43;;;;;;;9.50;3.67;;;19.20;99.90;;;19.39;58.39;101002.88;5113191;28;20040;-76
2022/09/16 06:49:11;;;;;;;10.45;3.60;;;19.10;99.90;;;19.04;57.78;100985.41;5113157;28;20047;-76
2022/09/16 06:51:42;;;;;;;12.32;3.33;;;18.90;99.90;;;18.97;59.18;101001.78;5111052;28;20055;-75
2022/09/16 06:54:11;;;;;;;7.07;2.92;;;18.60;99.90;;;19.13;58.93;100990.41;5113569;28;20035;-76
2022/09/16 06:56:40;;;;;;;10.18;3.20;;;18.80;99.90;;;19.11;59.15;100984.22;5113278;28;20043;-75
2022/09/16 06:59:09;;;;;;;11.48;3.70;;;18.80;99.90;;;19.39;59.09;100987.66;5113258;28;20122;-73
2022/09/16 07:01:38;;;;;;;8.00;3.40;;;19.10;99.90;;;19.41;58.20;100991.16;5113148;28;20108;-75
2022/09/16 07:04:09;;;;;;;7.63;3.22;;;19.10;99.90;;;19.47;58.61;100993.56;5113480;28;20047;-75
2022/09/16 07:06:38;;;;;;;6.97;2.92;;;19.20;99.90;;;19.14;59.03;100996.66;5113706;28;20126;-77
2022/09/16 07:09:27;;;;;;;11.23;4.10;;;18.90;99.90;;;18.57;61.18;101051.41;5113300;28;20055;-76
2022/09/16 07:11:56;;;;;;;10.93;3.63;;;18.40;99.90;;;17.92;63.27;101063.41;5113355;28;20071;-76
2022/09/16 07:14:24;;;;;;;9.57;3.78;;;18.00;99.90;;;17.86;64.38;101050.19;5113136;28;20329;-76
2022/09/16 07:16:52;;;;;;;9.05;3.42;;;17.60;99.90;;;17.38;64.82;101038.28;5113325;28;20046;-75
2022/09/16 07:19:21;;;;;;;6.88;3.70;;;17.20;99.90;;;17.13;65.14;101025.59;5113018;28;20415;-76
2022/09/16 07:21:49;;;;;;;5.55;3.20;;;16.90;99.90;;;17.04;66.02;101015.19;5113071;28;20047;-76
2022/09/16 07:24:18;;;;;;;6.55;3.13;;;16.80;99.90;;;16.72;65.55;101007.22;5113001;28;20058;-75
2022/09/16 07:26:48;;;;;;;6.50;3.63;;;16.50;99.90;;;16.87;65.86;101014.78;5113229;28;20047;-75
2022/09/16 07:29:19;;;;;;;8.18;2.92;;;16.50;99.90;;;16.49;67.11;101012.25;5113295;28;20044;-75
2022/09/16 07:31:48;;;;;;;5.95;3.45;;;16.20;99.90;;;16.39;67.10;101016.06;5113246;28;20044;-76
2022/09/16 07:34:16;;;;;;;6.28;3.30;;;16.00;99.90;;;16.20;68.61;101012.97;5111932;28;20477;-76
2022/09/16 07:36:47;;;;;;;7.63;3.00;;;15.80;99.90;;;16.24;69.74;101011.97;5111830;28;20493;-77
2022/09/16 07:39:19;;;;;;;7.00;3.15;;;15.90;99.90;;;16.60;70.02;101014.66;5113036;28;20050;-76
2022/09/16 07:41:49;;;;;;;9.70;3.42;;;16.20;99.90;;;16.99;70.83;101011.75;5112820;28;20516;-75
2022/09/16 07:44:19;;;;;;;9.43;3.60;;;16.50;99.90;;;17.31;68.70;101015.28;5113127;28;20047;-76
2022/09/16 07:46:49;;;;;;;10.48;3.97;;;16.90;99.90;;;17.46;68.12;101012.19;5113122;28;20058;-77
2022/09/16 07:49:18;;;;;;;8.07;3.95;;;17.10;99.90;;;17.59;67.52;101018.94;5111604;28;20052;-76
2022/09/16 07:51:47;;;;;;;11.27;3.30;;;17.20;99.90;;;17.60;68.40;101018.88;5113419;28;20106;-77
2022/09/16 07:54:18;;;;;;;12.43;3.75;;;17.30;99.90;;;17.72;68.63;101017.63;5113119;28;20123;-77
2022/09/16 07:56:48;;;;;;;10.35;3.92;;;17.40;99.90;;;17.97;68.13;101023.97;5113109;28;20118;-77
2022/09/16 07:59:19;;;;;;;12.20;3.95;;;17.60;99.90;;;18.36;67.83;101027.13;5112683;28;20047;-78
2022/09/16 08:01:49;;;;;;;9.80;3.92;;;17.90;99.90;;;18.52;67.89;101023.94;5112058;28;20055;-77
2022/09/16 08:04:19;;;;;;;9.65;3.38;;;18.20;99.90;;;18.62;67.21;101027.16;5115539;28;20662;-77
2022/09/16 08:06:47;;;;;;;16.88;4.47;;;18.20;99.90;;;18.87;66.49;101018.16;5116295;28;20529;-76
2022/09/16 08:09:16;;;;;;;11.57;3.67;;;18.50;99.90;;;18.54;66.93;101024.72;5116444;28;20131;-77
2022/09/16 08:12:09;;;;;;;8.95;3.72;;;18.20;99.90;;;18.13;67.80;101018.97;5116284;28;20039;-76
2022/09/16 08:14:38;;;;;;;18.58;4.20;;;18.10;99.90;;;17.63;67.46;101033.97;5116626;28;20043;-76
2022/09/16 08:17:06;;;;;;;11.13;3.85;;;17.60;99.90;;;17.65;67.37;101046.38;5115311;28;20492;-76
2022/09/16 08:19:37;;;;;;;8.93;3.20;;;17.30;99.90;;;17.81;66.31;101054.78;5116313;28;20036;-75
2022/09/16 08:22:05;;;;;;;8.27;4.05;;;17.50;99.90;;;17.85;66.00;101059.13;5115302;28;20399;-76
2022/09/16 08:24:34;;;;;;;7.05;3.13;;;17.60;99.90;;;17.82;64.90;101054.78;5116128;28;20515;-76
2022/09/16 08:27:02;;;;;;;9.23;3.13;;;17.50;99.90;;;17.88;64.31;101059.06;5115107;28;20048;-76
2022/09/16 08:29:32;;;;;;;7.10;3.53;;;17.50;99.90;;;17.90;64.34;101066.09;5116285;28;20035;-76
2022/09/16 08:32:00;;;;;;;4.75;3.13;;;17.60;99.90;;;17.88;64.23;101059.94;5116062;28;20050;-74
2022/09/16 08:34:28;;;;;;;6.90;3.42;;;17.60;99.90;;;18.07;64.28;101062.91;5115206;28;20044;-76
2022/09/16 08:36:56;;;;;;;8.90;3.75;;;17.70;99.90;;;18.36;64.14;101069.97;5116207;28;20066;-76
2022/09/16 08:39:25;;;;;;;8.07;3.53;;;18.00;99.90;;;18.62;63.41;101070.03;5115097;28;20418;-76
2022/09/16 08:42:23;;;;;;;9.80;3.83;;;18.30;99.90;;;18.77;62.57;101072.19;5116150;28;20040;-76
2022/09/16 08:45:08;;;;;;;10.40;3.92;;;18.50;99.90;;;18.95;63.04;101047.38;5114714;28;20511;-76
2022/09/16 08:47:47;;;;;;;8.43;3.35;;;18.70;99.90;;;19.18;61.42;101082.28;5116007;27;20157;-75
2022/09/16 08:50:29;;;;;;;12.52;4.05;;;19.00;99.90;;;19.31;62.05;101082.72;5115736;28;20044;-77
2022/09/16 08:53:03;;;;;;;7.40;3.28;;;19.00;99.90;;;19.25;62.48;101088.31;5114302;28;20066;-75
2022/09/16 08:55:38;;;;;;;7.88;3.42;;;19.00;99.90;;;19.15;61.27;101093.16;5115451;28;20054;-76
2022/09/16 08:58:13;;;;;;;9.15;3.08;;;18.90;99.90;;;19.10;61.29;101086.19;5115938;28;20043;-76
2022/09/16 09:00:46;;;;;;;7.20;3.42;;;18.80;99.90;;;19.24;61.71;101084.75;5115529;27;20484;-76
2022/09/16 09:03:22;;;;;;;7.82;3.10;;;18.90;99.90;;;19.24;60.70;101095.47;5115985;28;20062;-76
2022/09/16 09:05:53;;;;;;;9.23;3.33;;;18.90;99.90;;;19.26;61.00;101087.41;5115698;27;20479;-76
2022/09/16 09:08:34;;;;;;;10.32;3.35;;;18.90;99.90;;;19.13;61.48;101102.16;5116002;28;20043;-76
2022/09/16 09:11:10;;;;;;;10.30;3.67;;;18.80;99.90;;;18.97;61.38;101109.03;5115843;28;20053;-76
2022/09/16 09:14:05;;;;;;;9.15;3.67;;;18.70;99.90;;;18.83;62.11;101106.81;5114582;28;20070;-76
2022/09/16 09:16:45;;;;;;;9.68;3.42;;;18.50;99.90;;;18.64;63.31;101106.53;5115496;28;20122;-75
2022/09/16 09:19:33;;;;;;;11.30;3.97;;;18.30;99.90;;;18.65;63.63;101148.50;5115654;28;20540;-75
2022/09/16 09:22:24;;;;;;;10.25;3.53;;;18.20;99.90;;;16.84;67.77;101143.13;5113509;28;20592;-76
2022/09/16 09:25:13;;;;;;;12.50;4.10;;;17.10;99.90;;;16.69;70.53;101130.16;5115132;28;20536;-76
2022/09/16 09:27:52;;;;;;;8.13;3.45;;;16.40;99.90;;;16.66;68.74;101122.22;5115049;28;20047;-76
2022/09/16 09:30:23;;;;;;;7.18;2.90;;;16.30;99.90;;;16.43;69.93;101097.84;5114733;28;20060;-76
2022/09/16 09:33:13;;;;;;;6.68;3.08;;;16.30;99.90;;;16.61;70.37;101116.09;5114881;28;20043;-77
2022/09/16 09:36:23;;;;;;;8.70;3.55;;;16.30;99.90;;;16.69;72.20;101113.25;5115039;27;20050;-76
2022/09/16 09:39:10;;;;;;;7.43;3.08;;;16.30;99.90;;;16.88;73.00;101107.38;5115046;28;20119;-76
2022/09/16 09:41:44;;;;;;;12.35;4.00;;;16.50;99.90;;;16.86;73.19;101109.22;5114705;28;20040;-76
2022/09/16 09:44:42;;;;;;;8.27;3.22;;;16.50;99.90;;;17.23;72.33;101106.44;5115145;28;20040;-76
2022/09/16 09:47:16;;;;;;;8.60;3.70;;;16.90;99.90;;;17.29;72.92;101116.06;5113977;28;20059;-77
2022/09/16 09:49:53;;;;;;;8.90;3.55;;;17.00;99.90;;;17.62;73.42;101120.50;5114713;27;20043;-77
2022/09/16 09:52:28;;;;;;;10.48;3.10;;;17.30;99.90;;;17.87;71.59;101118.84;5114991;28;20051;-75
2022/09/16 09:55:13;;;;;;;8.70;3.42;;;17.50;99.90;;;17.82;70.41;101121.69;5114381;28;20040;-77
2022/09/16 09:58:14;;;;;;;7.90;2.92;;;17.60;99.90;;;17.69;69.73;101111.38;5113277;28;20055;-76
2022/09/16 10:00:42;;;;;;;7.78;3.40;;;17.50;99.90;;;17.53;69.68;101107.41;5114343;28;20040;-77
2022/09/16 10:03:13;;;;;;;12.95;3.42;;;17.20;99.90;;;16.99;70.99;101093.75;5114440;28;20066;-77
2022/09/16 10:05:45;;;;;;;9.88;3.00;;;16.80;99.90;;;16.79;72.02;101091.59;5114374;28;20511;-77
2022/09/16 10:08:23;;;;;;;6.97;3.15;;;16.50;99.90;;;16.85;72.20;101101.25;5114439;28;20032;-77
2022/09/16 10:10:54;;;;;;;5.68;3.13;;;16.50;99.90;;;16.88;72.34;101099.38;5114088;28;20051;-78
2022/09/16 10:13:25;;;;;;;4.90;3.30;;;16.50;99.90;;;16.72;72.40;101097.16;5112896;28;20135;-76
2022/09/16 10:16:06;;;;;;;8.88;3.75;;;16.30;99.90;;;16.58;73.32;101092.16;5112961;28;20492;-76
2022/09/16 10:18:35;;;;;;;6.72;3.47;;;16.20;99.90;;;16.69;73.70;101089.19;5114090;28;20060;-77
2022/09/16 10:21:07;;;;;;;13.00;3.90;;;16.30;99.90;;;16.74;73.34;101090.81;5113873;28;20549;-76
2022/09/16 10:23:37;;;;;;;9.88;3.42;;;16.30;99.90;;;16.70;73.07;101090.97;5113865;28;20043;-77
2022/09/16 10:26:19;;;;;;;10.93;3.58;;;16.30;99.90;;;16.83;73.06;101090.59;5113491;28;20062;-78
2022/09/16 10:29:01;;;;;;;11.82;3.40;;;16.40;99.90;;;16.93;71.40;101089.44;5114004;28;20044;-78
2022/09/16 10:31:36;;;;;;;7.03;3.50;;;16.50;99.90;;;17.12;71.55;101082.69;5113681;28;20040;-76
2022/09/16 10:34:15;;;;;;;9.43;3.83;;;16.70;99.90;;;16.86;73.20;101079.81;5113572;28;20464;-76
2022/09/16 10:36:45;;;;;;;8.23;3.38;;;16.60;99.90;;;16.94;73.45;101084.97;5112523;28;20393;-77
2022/09/16 10:39:24;;;;;;;8.38;3.80;;;16.60;99.90;;;16.79;73.00;101066.66;5114151;28;20089;-77